Bungo Princess — 3FXV8 — position and weather

sailwx.info

Track history (hours):
 
Tides and Currents Weather Stations Pressure Air Temp Water Temp Dewpoint Dewpoint Depression Visibility Wind Speed Wind Dir Waves Ship Positions

Bungo Princess

Last reported at 2014-Aug-12 21:27 UTC. Time now 2014-Aug-22 15:42 UTC.
Position N 31°54' E 124°57'.
Warning: this ship's position is 9 days out of date.

Length 103 m; draft 5.2 m.

Type: Cargo ship. MMSI: 355091000.

Date/timePositionNaut miles runAvg speedWind from/ knotsBaromVisibWave heightAir tempDewpointWater temp
2014-Aug-12 21:27N 31°54' E 124°57'14012.7
2014-Aug-12 10:24N 31°00' E 122°25'3812.8
2014-Aug-12 07:27N 31°16' E 121°45'1112.0
2014-Aug-12 06:34N 31°23' E 121°35'5 4.5
2014-Aug-12 05:33N 31°22' E 121°30'0 0.0
2014-Aug-12 04:28N 31°22' E 121°30'0 0.0
2014-Aug-12 03:10N 31°22' E 121°30'0 0.1
2014-Aug-12 02:28N 31°22' E 121°30'0 0.0
2014-Aug-12 01:28N 31°22' E 121°30'0 0.1
2014-Aug-12 00:28N 31°22' E 121°30'0 0.0
2014-Aug-11 23:28N 31°22' E 121°30'0 0.0
2014-Aug-11 22:22N 31°22' E 121°30'0 0.0
2014-Aug-11 21:28N 31°22' E 121°30'0 0.0
2014-Aug-11 20:22N 31°22' E 121°30'1 0.7
2014-Aug-11 19:33N 31°22' E 121°30'4 3.7
2014-Aug-11 18:33N 31°24' E 121°34'2 2.4
2014-Aug-11 17:31N 31°23' E 121°37'0 0.0
2014-Aug-11 16:27N 31°23' E 121°37'0 0.0
2014-Aug-11 15:15N 31°23' E 121°37'0 0.1
2014-Aug-11 14:21N 31°23' E 121°37'0 0.1
2014-Aug-11 13:33N 31°23' E 121°37'0 0.0
2014-Aug-11 11:33N 31°23' E 121°37'0 0.0
2014-Aug-11 10:27N 31°23' E 121°37'0 0.0
2014-Aug-11 09:09N 31°23' E 121°37'0 0.0
2014-Aug-11 08:27N 31°23' E 121°37'0 0.1
2014-Aug-11 07:27N 31°23' E 121°37'0 0.1
2014-Aug-11 06:27N 31°23' E 121°37'0 0.1
2014-Aug-11 05:28N 31°23' E 121°37'0 0.0
2014-Aug-11 04:03N 31°23' E 121°37'0 0.0
2014-Aug-11 03:21N 31°23' E 121°37'0 0.0
2014-Aug-11 02:33N 31°23' E 121°37'0 0.1
2014-Aug-11 01:27N 31°23' E 121°37'0 0.1
2014-Aug-11 00:33N 31°23' E 121°37'0 0.0
2014-Aug-10 23:33N 31°23' E 121°37'0 0.0
2014-Aug-10 22:33N 31°23' E 121°37'0 0.0
2014-Aug-10 21:21N 31°23' E 121°37'0 0.1
2014-Aug-10 20:21N 31°23' E 121°37'0 0.0
2014-Aug-10 19:33N 31°23' E 121°37'0 0.0
2014-Aug-10 18:33N 31°23' E 121°37'6 6.4
2014-Aug-10 17:33N 31°25' E 121°30'10 9.9
2014-Aug-10 16:31N 31°32' E 121°21'2412.1
2014-Aug-10 14:32N 31°47' E 120°58'1414.2
2014-Aug-10 13:33N 31°59' E 120°50'1414.2
2014-Aug-10 12:33N 32°01' E 120°34'9 8.6
2014-Aug-10 11:33N 31°58' E 120°24'0 0.2
2014-Aug-10 10:33N 31°58' E 120°24'0 0.0
2014-Aug-10 09:25N 31°58' E 120°24'0 0.0
2014-Aug-10 08:31N 31°58' E 120°24'0 0.0
2014-Aug-10 07:31N 31°58' E 120°24'0 0.0
2014-Aug-10 06:31N 31°58' E 120°24'0 0.1
2014-Aug-10 05:31N 31°58' E 120°24'0 0.1
2014-Aug-10 04:31N 31°58' E 120°24'0 0.0
2014-Aug-10 03:31N 31°58' E 120°24'0 0.1
2014-Aug-10 02:31N 31°58' E 120°24'0 0.0
2014-Aug-10 01:28N 31°58' E 120°24'0 0.0
2014-Aug-10 00:31N 31°58' E 120°24'0 0.0
2014-Aug-09 23:25N 31°58' E 120°24'0 0.1
2014-Aug-09 22:31N 31°58' E 120°24'0 0.0
2014-Aug-09 21:31N 31°58' E 120°24'0 0.0
2014-Aug-09 20:25N 31°58' E 120°24'0 0.1
2014-Aug-09 19:31N 31°58' E 120°24'0 0.0
2014-Aug-09 18:28N 31°58' E 120°24'0 0.1
2014-Aug-09 17:31N 31°58' E 120°24'0 0.1
2014-Aug-09 16:31N 31°58' E 120°24'0 0.0
2014-Aug-09 15:28N 31°58' E 120°24'0 0.1
2014-Aug-09 14:31N 31°58' E 120°24'0 0.0
2014-Aug-09 13:31N 31°58' E 120°24'0 0.0
2014-Aug-09 12:28N 31°58' E 120°24'0 0.1
2014-Aug-09 11:31N 31°58' E 120°24'1 0.7
2014-Aug-09 10:33N 31°58' E 120°25'6 6.1
2014-Aug-09 09:33N 32°02' E 120°30'10 9.9
2014-Aug-09 08:33N 32°00' E 120°42'3 2.5
2014-Aug-09 07:25N 32°00' E 120°45'0 0.1
2014-Aug-09 06:22N 32°00' E 120°45'0 0.0
2014-Aug-09 04:31N 32°00' E 120°45'0 0.1
2014-Aug-09 03:31N 32°00' E 120°45'0 0.1
2014-Aug-09 02:32N 32°00' E 120°45'0 0.0
2014-Aug-09 01:07N 32°00' E 120°45'0 0.0
2014-Aug-09 00:31N 32°00' E 120°45'0 0.0
2014-Aug-08 23:31N 32°00' E 120°45'0 0.0
2014-Aug-08 22:22N 32°00' E 120°45'0 0.0
2014-Aug-08 21:20N 32°00' E 120°45'0 0.0
2014-Aug-08 20:31N 32°00' E 120°45'0 0.0
2014-Aug-08 19:07N 32°00' E 120°45'0 0.1
2014-Aug-08 18:31N 32°00' E 120°45'0 0.0
2014-Aug-08 17:19N 32°00' E 120°45'0 0.0
2014-Aug-08 16:13N 32°00' E 120°45'0 0.0
2014-Aug-08 15:31N 32°00' E 120°45'0 0.1
2014-Aug-08 14:31N 32°00' E 120°45'0 0.0
2014-Aug-08 13:25N 32°00' E 120°45'0 0.0
2014-Aug-08 12:22N 32°00' E 120°45'0 0.0
2014-Aug-08 11:22N 32°00' E 120°45'0 0.0
2014-Aug-08 10:31N 32°00' E 120°45'3 3.5
2014-Aug-08 09:33N 32°00' E 120°49'1110.1
2014-Aug-08 08:27N 31°50' E 120°54'20 9.7
2014-Aug-08 06:26N 31°39' E 121°14'1010.9
2014-Aug-08 05:33N 31°32' E 121°21'1010.4
2014-Aug-08 04:33N 31°25' E 121°31'8 7.8
2014-Aug-08 03:33N 31°22' E 121°39'52 9.7
2014-Aug-07 22:11N 31°01' E 122°34'3 0.5
2014-Aug-07 16:33N 31°02' E 122°37'  
Track history (hours):
 
Tides and Currents Weather Stations Pressure Air Temp Water Temp Dewpoint Dewpoint Depression Visibility Wind Speed Wind Dir Waves Ship Positions

Bungo Princess

Last reported at 2014-Aug-12 21:27 UTC. Time now 2014-Aug-22 15:42 UTC.
Position N 31°54' E 124°57'.
Warning: this ship's position is 9 days out of date.

Length 103 m; draft 5.2 m.

Type: Cargo ship. MMSI: 355091000.

Date/timePositionNaut miles runAvg speedWind from/ knotsBaromVisibWave heightAir tempDewpointWater temp
2014-Aug-12 21:27N 31°54' E 124°57'14012.7
2014-Aug-12 10:24N 31°00' E 122°25'3812.8
2014-Aug-12 07:27N 31°16' E 121°45'1112.0
2014-Aug-12 06:34N 31°23' E 121°35'5 4.5
2014-Aug-12 05:33N 31°22' E 121°30'0 0.0
2014-Aug-12 04:28N 31°22' E 121°30'0 0.0
2014-Aug-12 03:10N 31°22' E 121°30'0 0.1
2014-Aug-12 02:28N 31°22' E 121°30'0 0.0
2014-Aug-12 01:28N 31°22' E 121°30'0 0.1
2014-Aug-12 00:28N 31°22' E 121°30'0 0.0
2014-Aug-11 23:28N 31°22' E 121°30'0 0.0
2014-Aug-11 22:22N 31°22' E 121°30'0 0.0
2014-Aug-11 21:28N 31°22' E 121°30'0 0.0
2014-Aug-11 20:22N 31°22' E 121°30'1 0.7
2014-Aug-11 19:33N 31°22' E 121°30'4 3.7
2014-Aug-11 18:33N 31°24' E 121°34'2 2.4
2014-Aug-11 17:31N 31°23' E 121°37'0 0.0
2014-Aug-11 16:27N 31°23' E 121°37'0 0.0
2014-Aug-11 15:15N 31°23' E 121°37'0 0.1
2014-Aug-11 14:21N 31°23' E 121°37'0 0.1
2014-Aug-11 13:33N 31°23' E 121°37'0 0.0
2014-Aug-11 11:33N 31°23' E 121°37'0 0.0
2014-Aug-11 10:27N 31°23' E 121°37'0 0.0
2014-Aug-11 09:09N 31°23' E 121°37'0 0.0
2014-Aug-11 08:27N 31°23' E 121°37'0 0.1
2014-Aug-11 07:27N 31°23' E 121°37'0 0.1
2014-Aug-11 06:27N 31°23' E 121°37'0 0.1
2014-Aug-11 05:28N 31°23' E 121°37'0 0.0
2014-Aug-11 04:03N 31°23' E 121°37'0 0.0
2014-Aug-11 03:21N 31°23' E 121°37'0 0.0
2014-Aug-11 02:33N 31°23' E 121°37'0 0.1
2014-Aug-11 01:27N 31°23' E 121°37'0 0.1
2014-Aug-11 00:33N 31°23' E 121°37'0 0.0
2014-Aug-10 23:33N 31°23' E 121°37'0 0.0
2014-Aug-10 22:33N 31°23' E 121°37'0 0.0
2014-Aug-10 21:21N 31°23' E 121°37'0 0.1
2014-Aug-10 20:21N 31°23' E 121°37'0 0.0
2014-Aug-10 19:33N 31°23' E 121°37'0 0.0
2014-Aug-10 18:33N 31°23' E 121°37'6 6.4
2014-Aug-10 17:33N 31°25' E 121°30'10 9.9
2014-Aug-10 16:31N 31°32' E 121°21'2412.1
2014-Aug-10 14:32N 31°47' E 120°58'1414.2
2014-Aug-10 13:33N 31°59' E 120°50'1414.2
2014-Aug-10 12:33N 32°01' E 120°34'9 8.6
2014-Aug-10 11:33N 31°58' E 120°24'0 0.2
2014-Aug-10 10:33N 31°58' E 120°24'0 0.0
2014-Aug-10 09:25N 31°58' E 120°24'0 0.0
2014-Aug-10 08:31N 31°58' E 120°24'0 0.0
2014-Aug-10 07:31N 31°58' E 120°24'0 0.0
2014-Aug-10 06:31N 31°58' E 120°24'0 0.1
2014-Aug-10 05:31N 31°58' E 120°24'0 0.1
2014-Aug-10 04:31N 31°58' E 120°24'0 0.0
2014-Aug-10 03:31N 31°58' E 120°24'0 0.1
2014-Aug-10 02:31N 31°58' E 120°24'0 0.0
2014-Aug-10 01:28N 31°58' E 120°24'0 0.0
2014-Aug-10 00:31N 31°58' E 120°24'0 0.0
2014-Aug-09 23:25N 31°58' E 120°24'0 0.1
2014-Aug-09 22:31N 31°58' E 120°24'0 0.0
2014-Aug-09 21:31N 31°58' E 120°24'0 0.0
2014-Aug-09 20:25N 31°58' E 120°24'0 0.1
2014-Aug-09 19:31N 31°58' E 120°24'0 0.0
2014-Aug-09 18:28N 31°58' E 120°24'0 0.1
2014-Aug-09 17:31N 31°58' E 120°24'0 0.1
2014-Aug-09 16:31N 31°58' E 120°24'0 0.0
2014-Aug-09 15:28N 31°58' E 120°24'0 0.1
2014-Aug-09 14:31N 31°58' E 120°24'0 0.0
2014-Aug-09 13:31N 31°58' E 120°24'0 0.0
2014-Aug-09 12:28N 31°58' E 120°24'0 0.1
2014-Aug-09 11:31N 31°58' E 120°24'1 0.7
2014-Aug-09 10:33N 31°58' E 120°25'6 6.1
2014-Aug-09 09:33N 32°02' E 120°30'10 9.9
2014-Aug-09 08:33N 32°00' E 120°42'3 2.5
2014-Aug-09 07:25N 32°00' E 120°45'0 0.1
2014-Aug-09 06:22N 32°00' E 120°45'0 0.0
2014-Aug-09 04:31N 32°00' E 120°45'0 0.1
2014-Aug-09 03:31N 32°00' E 120°45'0 0.1
2014-Aug-09 02:32N 32°00' E 120°45'0 0.0
2014-Aug-09 01:07N 32°00' E 120°45'0 0.0
2014-Aug-09 00:31N 32°00' E 120°45'0 0.0
2014-Aug-08 23:31N 32°00' E 120°45'0 0.0
2014-Aug-08 22:22N 32°00' E 120°45'0 0.0
2014-Aug-08 21:20N 32°00' E 120°45'0 0.0
2014-Aug-08 20:31N 32°00' E 120°45'0 0.0
2014-Aug-08 19:07N 32°00' E 120°45'0 0.1
2014-Aug-08 18:31N 32°00' E 120°45'0 0.0
2014-Aug-08 17:19N 32°00' E 120°45'0 0.0
2014-Aug-08 16:13N 32°00' E 120°45'0 0.0
2014-Aug-08 15:31N 32°00' E 120°45'0 0.1
2014-Aug-08 14:31N 32°00' E 120°45'0 0.0
2014-Aug-08 13:25N 32°00' E 120°45'0 0.0
2014-Aug-08 12:22N 32°00' E 120°45'0 0.0
2014-Aug-08 11:22N 32°00' E 120°45'0 0.0
2014-Aug-08 10:31N 32°00' E 120°45'3 3.5
2014-Aug-08 09:33N 32°00' E 120°49'1110.1
2014-Aug-08 08:27N 31°50' E 120°54'20 9.7
2014-Aug-08 06:26N 31°39' E 121°14'1010.9
2014-Aug-08 05:33N 31°32' E 121°21'1010.4
2014-Aug-08 04:33N 31°25' E 121°31'8 7.8
2014-Aug-08 03:33N 31°22' E 121°39'52 9.7
2014-Aug-07 22:11N 31°01' E 122°34'3 0.5
2014-Aug-07 16:33N 31°02' E 122°37'  

Dump ship's entire track history